createdAt,value
2023-04-24T00:03:05.279Z,95341.00
2023-04-24T00:07:09.989Z,95341.00
2023-04-24T00:11:13.322Z,95337.00
2023-04-24T00:15:17.994Z,95328.00
2023-04-24T00:19:22.455Z,95329.00
2023-04-24T00:23:27.169Z,95330.00
2023-04-24T00:27:33.325Z,95328.00
2023-04-24T00:31:38.433Z,95334.00
2023-04-24T00:35:43.271Z,95324.00
2023-04-24T00:39:47.736Z,95317.00
2023-04-24T00:43:56.282Z,95327.00
2023-04-24T00:48:02.770Z,95322.00
2023-04-24T00:52:10.809Z,95332.00
2023-04-24T00:56:17.301Z,95322.00
2023-04-24T01:00:21.230Z,95320.00
2023-04-24T01:04:30.962Z,95323.00
2023-04-24T01:08:34.991Z,95327.00
2023-04-24T01:12:44.029Z,95324.00
2023-04-24T01:16:47.217Z,95326.00
2023-04-24T01:20:55.024Z,95322.00
2023-04-24T01:25:02.718Z,95327.00
2023-04-24T01:29:07.407Z,95331.00
2023-04-24T01:33:14.362Z,95333.00
2023-04-24T01:37:17.864Z,95328.00
2023-04-24T01:41:25.860Z,95317.00
2023-04-24T01:45:30.544Z,95309.00
2023-04-24T01:49:40.469Z,95315.00
2023-04-24T01:53:43.739Z,95319.00
2023-04-24T01:57:52.020Z,95319.00
2023-04-24T02:01:55.164Z,95317.00
2023-04-24T02:05:58.317Z,95305.00
2023-04-24T02:10:03.639Z,95312.00
2023-04-24T02:14:13.263Z,95301.00
2023-04-24T02:18:16.763Z,95298.00
2023-04-24T02:22:19.841Z,95297.00
2023-04-24T02:26:23.008Z,95290.00
2023-04-24T02:30:30.523Z,95297.00
2023-04-24T02:34:35.254Z,95288.00
2023-04-24T02:38:38.412Z,95288.00
2023-04-24T02:42:41.475Z,95284.00
2023-04-24T02:46:46.029Z,95267.00
2023-04-24T02:50:49.263Z,95265.00
2023-04-24T02:54:52.263Z,95274.00
2023-04-24T02:58:55.372Z,95271.00
2023-04-24T03:03:00.294Z,95271.00
2023-04-24T03:07:03.646Z,95267.00
2023-04-24T03:11:08.528Z,95270.00
2023-04-24T03:15:12.199Z,95267.00
2023-04-24T03:19:16.879Z,95272.00
2023-04-24T03:23:19.923Z,95266.00
2023-04-24T03:27:22.956Z,95266.00
2023-04-24T03:31:26.275Z,95271.00
2023-04-24T03:35:32.266Z,95266.00
2023-04-24T03:39:37.822Z,95274.00
2023-04-24T03:43:41.963Z,95278.00
2023-04-24T03:47:45.025Z,95289.00
2023-04-24T03:51:49.486Z,95289.00
2023-04-24T03:55:55.086Z,95297.00
2023-04-24T03:59:58.065Z,95293.00
2023-04-24T04:04:01.217Z,95290.00
2023-04-24T04:08:08.825Z,95289.00
2023-04-24T04:12:11.808Z,95287.00
2023-04-24T04:16:17.831Z,95288.00
2023-04-24T04:20:21.301Z,95284.00
2023-04-24T04:24:27.653Z,95275.00
2023-04-24T04:28:33.592Z,95275.00
2023-04-24T04:32:38.998Z,95278.00
2023-04-24T04:36:45.403Z,95288.00
2023-04-24T04:40:50.042Z,95277.00
2023-04-24T04:44:53.160Z,95282.00
2023-04-24T04:49:00.044Z,95277.00
2023-04-24T04:53:05.284Z,95288.00
2023-04-24T04:57:13.159Z,95292.00
2023-04-24T05:01:16.212Z,95289.00
2023-04-24T05:05:19.875Z,95299.00
2023-04-24T05:09:22.896Z,95297.00
2023-04-24T05:13:38.460Z,95300.00
2023-04-24T05:17:45.439Z,95302.00
2023-04-24T05:21:54.294Z,95300.00
2023-04-24T05:26:02.781Z,95314.00
2023-04-24T05:30:11.108Z,95316.00
2023-04-24T05:34:15.310Z,95313.00
2023-04-24T05:38:22.604Z,95319.00
2023-04-24T05:42:28.851Z,95326.00
2023-04-24T05:46:33.406Z,95319.00
2023-04-24T05:50:38.958Z,95321.00
2023-04-24T05:54:41.991Z,95324.00
2023-04-24T05:58:49.708Z,95322.00
2023-04-24T06:02:55.579Z,95322.00
2023-04-24T06:07:01.922Z,95320.00
2023-04-24T06:11:05.020Z,95331.00
2023-04-24T06:15:11.443Z,95332.00
2023-04-24T06:19:18.488Z,95333.00
2023-04-24T06:23:21.965Z,95340.00
2023-04-24T06:27:29.118Z,95338.00
2023-04-24T06:31:37.469Z,95330.00
2023-04-24T06:35:42.878Z,95339.00
2023-04-24T06:39:50.898Z,95341.00
2023-04-24T06:43:55.730Z,95338.00
2023-04-24T06:47:59.041Z,95334.00
2023-04-24T06:52:11.271Z,95338.00
2023-04-24T06:56:16.863Z,95327.00
2023-04-24T07:00:21.912Z,95326.00
2023-04-24T07:04:26.791Z,95337.00
2023-04-24T07:08:31.996Z,95334.00
2023-04-24T07:12:36.860Z,95336.00
2023-04-24T07:16:40.127Z,95325.00
2023-04-24T07:20:51.245Z,95335.00
2023-04-24T07:24:55.639Z,95343.00
2023-04-24T07:29:01.856Z,95350.00
2023-04-24T07:33:04.987Z,95339.00
2023-04-24T07:37:08.158Z,95350.00
2023-04-24T07:41:13.827Z,95339.00
2023-04-24T07:45:20.119Z,95348.00
2023-04-24T07:49:26.071Z,95360.00
2023-04-24T07:53:29.246Z,95354.00
2023-04-24T07:57:33.677Z,95345.00
2023-04-24T08:01:36.713Z,95349.00
2023-04-24T08:05:41.139Z,95353.00
2023-04-24T08:09:44.428Z,95357.00
2023-04-24T08:13:56.191Z,95379.00
2023-04-24T08:17:59.589Z,95374.00
2023-04-24T08:22:05.282Z,95378.00
2023-04-24T08:26:08.969Z,95388.00
2023-04-24T08:30:14.000Z,95391.00
2023-04-24T08:34:20.381Z,95394.00
2023-04-24T08:38:25.905Z,95396.00
2023-04-24T08:42:33.716Z,95401.00
2023-04-24T08:46:39.174Z,95405.00
2023-04-24T08:50:44.067Z,95402.00
2023-04-24T08:54:48.698Z,95413.00
2023-04-24T08:58:53.705Z,95413.00
2023-04-24T09:03:01.327Z,95415.00
2023-04-24T09:07:06.237Z,95410.00
2023-04-24T09:11:10.055Z,95416.00
2023-04-24T09:15:13.730Z,95420.00
2023-04-24T09:19:18.394Z,95406.00
2023-04-24T09:23:23.170Z,95406.00
2023-04-24T09:27:29.130Z,95402.00
2023-04-24T09:31:33.608Z,95410.00
2023-04-24T09:35:38.108Z,95411.00
2023-04-24T09:39:42.893Z,95413.00
2023-04-24T09:43:46.323Z,95426.00
2023-04-24T09:47:57.557Z,95423.00
2023-04-24T09:52:08.878Z,95439.00
2023-04-24T09:56:14.580Z,95438.00
2023-04-24T10:00:25.037Z,95444.00
2023-04-24T10:04:32.615Z,95442.00
2023-04-24T10:08:37.780Z,95442.00
2023-04-24T10:12:41.428Z,95453.00
2023-04-24T10:16:45.292Z,95463.00
2023-04-24T10:20:49.836Z,95458.00
2023-04-24T10:24:56.069Z,95441.00
2023-04-24T10:29:00.353Z,95463.00
2023-04-24T10:33:04.464Z,95461.00
2023-04-24T10:37:13.668Z,95462.00
2023-04-24T10:41:24.224Z,95450.00
2023-04-24T10:45:29.025Z,95459.00
2023-04-24T10:49:34.808Z,95460.00
2023-04-24T10:53:40.678Z,95454.00
2023-04-24T10:58:08.892Z,95445.00
2023-04-24T11:02:14.904Z,95459.00
2023-04-24T11:06:19.941Z,95466.00
2023-04-24T11:10:28.171Z,95469.00
2023-04-24T11:14:32.540Z,95471.00
2023-04-24T11:18:46.231Z,95486.00
2023-04-24T11:22:49.799Z,95487.00
2023-04-24T11:26:54.547Z,95481.00
2023-04-24T11:30:59.135Z,95491.00
2023-04-24T11:35:06.332Z,95499.00
2023-04-24T11:39:11.726Z,95490.00
2023-04-24T11:43:16.759Z,95485.00
2023-04-24T11:47:22.101Z,95482.00
2023-04-24T11:51:31.126Z,95469.00
2023-04-24T11:55:39.661Z,95479.00
2023-04-24T11:59:42.992Z,95486.00
2023-04-24T12:03:52.339Z,95472.00
2023-04-24T12:07:58.492Z,95473.00
2023-04-24T12:12:02.135Z,95465.00
2023-04-24T12:16:08.450Z,95466.00
2023-04-24T12:20:18.111Z,95467.00
2023-04-24T12:24:22.418Z,95471.00
2023-04-24T12:28:27.867Z,95461.00
2023-04-24T12:32:30.929Z,95467.00
2023-04-24T12:36:42.439Z,95465.00
2023-04-24T12:40:50.714Z,95482.00
2023-04-24T12:45:00.202Z,95482.00
2023-04-24T12:49:03.813Z,95487.00
2023-04-24T12:53:12.336Z,95502.00
2023-04-24T12:57:20.328Z,95509.00
2023-04-24T13:01:23.856Z,95537.00
2023-04-24T13:05:29.039Z,95525.00
2023-04-24T13:09:35.813Z,95539.00
2023-04-24T13:13:50.019Z,95537.00
2023-04-24T13:17:53.221Z,95528.00
2023-04-24T13:21:57.802Z,95528.00
2023-04-24T13:26:05.313Z,95532.00
2023-04-24T13:30:09.992Z,95535.00
2023-04-24T13:34:13.367Z,95534.00
2023-04-24T13:38:20.135Z,95526.00
2023-04-24T13:42:29.334Z,95527.00
2023-04-24T13:46:35.202Z,95526.00
2023-04-24T13:50:38.505Z,95537.00
2023-04-24T13:54:42.981Z,95542.00
2023-04-24T13:58:47.469Z,95550.00
2023-04-24T14:02:51.377Z,95550.00
2023-04-24T14:06:56.818Z,95553.00
2023-04-24T14:11:09.147Z,95547.00
2023-04-24T14:15:14.547Z,95553.00
2023-04-24T14:19:19.489Z,95554.00
2023-04-24T14:23:22.514Z,95551.00
2023-04-24T14:27:26.084Z,95560.00
2023-04-24T14:31:31.593Z,95553.00
2023-04-24T14:35:36.339Z,95558.00
2023-04-24T14:39:39.359Z,95548.00
2023-04-24T14:43:43.394Z,95555.00
2023-04-24T14:47:48.913Z,95555.00
2023-04-24T14:51:51.974Z,95555.00
2023-04-24T14:56:01.262Z,95546.00
2023-04-24T15:00:06.518Z,95558.00
2023-04-24T15:04:12.513Z,95562.00
2023-04-24T15:08:16.813Z,95549.00
2023-04-24T15:12:21.442Z,95552.00
2023-04-24T15:16:26.194Z,95556.00
2023-04-24T15:20:30.705Z,95563.00
2023-04-24T15:24:33.753Z,95560.00
2023-04-24T15:28:36.769Z,95568.00
2023-04-24T15:32:40.581Z,95561.00
2023-04-24T15:36:45.051Z,95571.00
2023-04-24T15:40:49.357Z,95572.00
2023-04-24T15:44:52.331Z,95573.00
2023-04-24T15:48:55.815Z,95578.00
2023-04-24T15:53:00.597Z,95590.00
2023-04-24T15:57:07.833Z,95584.00
2023-04-24T16:01:10.914Z,95573.00
2023-04-24T16:05:14.186Z,95583.00
2023-04-24T16:09:18.608Z,95579.00
2023-04-24T16:13:24.006Z,95605.00
2023-04-24T16:17:30.045Z,95610.00
2023-04-24T16:21:33.127Z,95620.00
2023-04-24T16:25:40.142Z,95608.00
2023-04-24T16:29:45.708Z,95619.00
2023-04-24T16:33:53.502Z,95601.00
2023-04-24T16:37:56.539Z,95613.00
2023-04-24T16:42:01.835Z,95613.00
2023-04-24T16:46:05.184Z,95605.00
2023-04-24T16:50:09.873Z,95607.00
2023-04-24T16:54:12.997Z,95612.00
2023-04-24T16:58:20.143Z,95612.00
2023-04-24T17:02:29.198Z,95609.00
2023-04-24T17:06:32.901Z,95615.00
2023-04-24T17:10:35.996Z,95619.00
2023-04-24T17:14:40.411Z,95618.00
2023-04-24T17:18:43.691Z,95612.00
2023-04-24T17:22:50.761Z,95623.00
2023-04-24T17:26:58.932Z,95626.00
2023-04-24T17:31:09.502Z,95620.00
2023-04-24T17:35:17.072Z,95628.00
2023-04-24T17:39:21.527Z,95627.00
2023-04-24T17:43:26.658Z,95628.00
2023-04-24T17:47:31.111Z,95637.00
2023-04-24T17:51:38.624Z,95629.00
2023-04-24T17:55:44.457Z,95637.00
2023-04-24T17:59:47.516Z,95636.00
2023-04-24T18:03:54.893Z,95639.00
2023-04-24T18:08:02.593Z,95649.00
2023-04-24T18:12:08.260Z,95650.00
2023-04-24T18:16:11.461Z,95646.00
2023-04-24T18:20:17.241Z,95656.00
2023-04-24T18:24:22.413Z,95656.00
2023-04-24T18:28:34.878Z,95654.00
2023-04-24T18:32:38.109Z,95664.00
2023-04-24T18:36:42.663Z,95680.00
2023-04-24T18:40:49.992Z,95677.00
2023-04-24T18:44:53.097Z,95681.00
2023-04-24T18:48:56.331Z,95684.00
2023-04-24T18:53:02.085Z,95689.00
2023-04-24T18:57:07.947Z,95689.00
2023-04-24T19:01:11.203Z,95691.00
2023-04-24T19:05:14.778Z,95697.00
2023-04-24T19:09:20.579Z,95696.00
2023-04-24T19:13:23.611Z,95706.00
2023-04-24T19:17:31.856Z,95709.00
2023-04-24T19:21:35.812Z,95715.00
2023-04-24T19:25:40.248Z,95729.00
2023-04-24T19:29:46.097Z,95739.00
2023-04-24T19:33:49.426Z,95746.00
2023-04-24T19:37:52.465Z,95731.00
2023-04-24T19:42:01.331Z,95735.00
2023-04-24T19:46:07.128Z,95726.00
2023-04-24T19:50:10.452Z,95724.00
2023-04-24T19:54:14.833Z,95723.00
2023-04-24T19:58:19.746Z,95719.00
2023-04-24T20:02:24.112Z,95723.00
2023-04-24T20:06:29.292Z,95721.00
2023-04-24T20:10:37.199Z,95730.00
2023-04-24T20:14:43.364Z,95717.00
2023-04-24T20:18:46.514Z,95725.00
2023-04-24T20:22:52.198Z,95721.00
2023-04-24T20:26:55.430Z,95723.00
2023-04-24T20:31:00.246Z,95728.00
2023-04-24T20:35:05.698Z,95724.00
2023-04-24T20:39:15.758Z,95722.00
2023-04-24T20:43:18.820Z,95723.00
2023-04-24T20:47:27.067Z,95717.00
2023-04-24T20:51:30.409Z,95725.00
2023-04-24T20:55:36.332Z,95717.00
2023-04-24T20:59:40.078Z,95717.00
2023-04-24T21:03:56.596Z,95722.00
2023-04-24T21:08:01.429Z,95722.00
2023-04-24T21:12:07.700Z,95711.00
2023-04-24T21:16:10.797Z,95724.00
2023-04-24T21:20:15.594Z,95719.00
2023-04-24T21:24:18.908Z,95720.00
2023-04-24T21:28:21.993Z,95714.00
2023-04-24T21:32:27.524Z,95701.00
2023-04-24T21:36:35.374Z,95714.00
2023-04-24T21:40:38.407Z,95701.00
2023-04-24T21:44:41.426Z,95701.00
2023-04-24T21:48:50.564Z,95703.00
2023-04-24T21:52:57.052Z,95697.00
2023-04-24T21:57:02.356Z,95690.00
2023-04-24T22:01:05.582Z,95692.00
2023-04-24T22:05:15.740Z,95678.00
2023-04-24T22:09:22.814Z,95678.00
2023-04-24T22:13:25.874Z,95674.00
2023-04-24T22:17:29.173Z,95677.00
2023-04-24T22:21:32.758Z,95682.00
2023-04-24T22:25:37.263Z,95680.00
2023-04-24T22:29:40.387Z,95673.00
2023-04-24T22:33:47.879Z,95674.00
2023-04-24T22:37:55.831Z,95664.00
2023-04-24T22:42:02.948Z,95665.00
2023-04-24T22:46:06.307Z,95666.00
2023-04-24T22:50:10.714Z,95666.00
2023-04-24T22:54:16.393Z,95666.00
2023-04-24T22:58:20.809Z,95659.00
2023-04-24T23:02:30.950Z,95659.00
2023-04-24T23:06:36.435Z,95650.00
2023-04-24T23:10:47.277Z,95646.00
2023-04-24T23:14:55.763Z,95643.00
2023-04-24T23:18:58.768Z,95647.00
2023-04-24T23:23:02.233Z,95639.00
2023-04-24T23:27:05.525Z,95639.00
2023-04-24T23:31:10.211Z,95632.00
2023-04-24T23:35:15.412Z,95627.00
2023-04-24T23:39:18.650Z,95624.00
2023-04-24T23:43:23.443Z,95618.00
2023-04-24T23:47:28.884Z,95626.00
2023-04-24T23:51:33.896Z,95618.00
2023-04-24T23:55:37.229Z,95620.00
2023-04-24T23:59:40.205Z,95612.00
